Time;durP1;ratioP1;P1;durP2;ratioP2;P2;SDS_P1;SDS_P2;PMS_P1;PMS_P2;Temp;Humidity;BMP_temperature;BMP_pressure;BME280_temperature;BME280_humidity;BME280_pressure;Samples;Min_cycle;Max_cycle;Signal;HPM_P1;HPM_P2
2023/08/05 00:00:28;;;;;;;10.38;4.10;;;15.90;99.90;;;;;;5119362;28;20169;-80
2023/08/05 00:02:53;;;;;;;13.10;4.45;;;15.90;99.90;;;;;;5115003;28;20501;-82
2023/08/05 00:05:19;;;;;;;12.98;4.05;;;15.90;99.90;;;;;;5121440;28;20040;-80
2023/08/05 00:07:45;;;;;;;7.70;3.70;;;15.90;99.90;;;;;;5116258;28;20445;-81
2023/08/05 00:10:10;;;;;;;5.82;3.40;;;15.90;99.90;;;;;;5119073;28;20042;-80
2023/08/05 00:12:36;;;;;;;8.32;3.30;;;15.90;99.90;;;;;;5100590;28;20072;-80
2023/08/05 00:15:02;;;;;;;5.97;3.42;;;15.90;99.90;;;;;;5107060;28;20032;-80
2023/08/05 00:17:27;;;;;;;10.98;3.90;;;15.90;99.90;;;;;;5099531;28;20050;-79
2023/08/05 00:19:53;;;;;;;14.13;4.28;;;15.80;99.90;;;;;;5117883;28;20409;-80
2023/08/05 00:22:19;;;;;;;6.57;3.33;;;15.80;99.90;;;;;;5117546;28;20051;-79
2023/08/05 00:24:45;;;;;;;17.05;4.25;;;15.80;99.90;;;;;;5113637;28;20466;-80
2023/08/05 00:27:10;;;;;;;8.57;4.68;;;15.80;99.90;;;;;;5102289;28;20052;-80
2023/08/05 00:29:36;;;;;;;9.23;4.28;;;15.80;99.90;;;;;;5111163;28;20116;-80
2023/08/05 00:32:02;;;;;;;7.70;3.70;;;15.70;99.90;;;;;;5124012;28;20031;-80
2023/08/05 00:34:27;;;;;;;8.95;3.85;;;15.70;99.90;;;;;;5122198;28;20119;-79
2023/08/05 00:36:53;;;;;;;10.73;3.72;;;15.70;99.90;;;;;;5115446;28;20478;-79
2023/08/05 00:39:19;;;;;;;13.88;4.60;;;15.70;99.90;;;;;;5122069;28;20123;-81
2023/08/05 00:41:44;;;;;;;13.82;4.15;;;15.70;99.90;;;;;;5121755;28;20031;-80
2023/08/05 00:44:11;;;;;;;8.90;4.45;;;15.60;99.90;;;;;;5120535;28;20173;-81
2023/08/05 00:46:37;;;;;;;14.77;4.67;;;15.60;99.90;;;;;;5116001;28;20405;-79
2023/08/05 00:49:03;;;;;;;14.45;4.70;;;15.60;99.90;;;;;;5095892;28;20282;-80
2023/08/05 00:51:29;;;;;;;10.68;4.50;;;15.50;99.90;;;;;;5098473;28;20432;-80
2023/08/05 00:53:55;;;;;;;11.07;4.68;;;15.50;99.90;;;;;;5095245;28;20477;-79
2023/08/05 00:56:22;;;;;;;11.32;4.53;;;15.50;99.90;;;;;;5118379;28;20039;-79
2023/08/05 00:58:48;;;;;;;8.77;4.45;;;15.40;99.90;;;;;;5119998;28;20040;-80
2023/08/05 01:01:13;;;;;;;12.02;4.72;;;15.40;99.90;;;;;;5101397;28;20451;-81
2023/08/05 01:03:39;;;;;;;8.02;4.57;;;15.40;99.90;;;;;;5106136;28;20076;-81
2023/08/05 01:06:06;;;;;;;8.75;4.40;;;15.40;99.90;;;;;;5119495;28;20124;-80
2023/08/05 01:08:33;;;;;;;9.90;4.50;;;15.40;99.90;;;;;;5115226;28;20393;-80
2023/08/05 01:11:03;;;;;;;8.43;4.28;;;15.40;99.90;;;;;;5099331;28;20128;-82
2023/08/05 01:13:32;;;;;;;8.88;4.20;;;15.40;99.90;;;;;;5099216;28;20040;-80
2023/08/05 01:15:59;;;;;;;7.45;3.92;;;15.40;99.90;;;;;;5109169;28;20065;-80
2023/08/05 01:18:27;;;;;;;9.60;4.32;;;15.40;99.90;;;;;;5114814;28;20052;-81
2023/08/05 01:20:54;;;;;;;;;;;15.30;99.90;;;;;;5097862;28;20048;-80
2023/08/05 01:23:36;;;;;;;10.38;4.10;;;15.30;99.90;;;;;;5097983;28;20029;-80
2023/08/05 01:26:04;;;;;;;8.77;4.10;;;15.30;99.90;;;;;;5099803;28;20075;-82
2023/08/05 01:28:32;;;;;;;11.45;4.03;;;15.30;99.90;;;;;;5126368;28;20064;-79
2023/08/05 01:31:00;;;;;;;9.50;4.07;;;15.20;99.90;;;;;;5119918;28;20042;-80
2023/08/05 01:33:27;;;;;;;8.43;3.70;;;15.20;99.90;;;;;;5122321;28;20095;-80
2023/08/05 01:35:52;;;;;;;8.43;3.97;;;15.10;99.90;;;;;;5118397;28;20489;-80
2023/08/05 01:38:18;;;;;;;9.68;3.83;;;15.10;99.90;;;;;;5118219;28;20038;-80
2023/08/05 01:40:44;;;;;;;13.38;4.18;;;15.10;99.90;;;;;;5115313;28;20509;-79
2023/08/05 01:43:10;;;;;;;9.50;4.28;;;15.00;99.90;;;;;;5101849;28;20039;-79
2023/08/05 01:45:36;;;;;;;8.25;3.67;;;15.00;99.90;;;;;;5103971;28;20031;-80
2023/08/05 01:48:01;;;;;;;7.13;3.80;;;14.90;99.90;;;;;;5122817;28;20174;-81
2023/08/05 01:50:27;;;;;;;10.13;3.65;;;14.90;99.90;;;;;;5120327;28;20494;-80
2023/08/05 01:52:53;;;;;;;8.00;3.80;;;14.80;99.90;;;;;;5122811;28;20549;-80
2023/08/05 01:55:19;;;;;;;7.13;3.80;;;14.80;99.90;;;;;;5099442;28;20086;-79
2023/08/05 01:57:45;;;;;;;8.20;3.97;;;14.70;99.90;;;;;;5117854;28;20392;-80
2023/08/05 02:00:12;;;;;;;12.50;4.53;;;14.70;99.90;;;;;;5120064;28;20040;-79
2023/08/05 02:02:38;;;;;;;9.63;3.83;;;14.60;99.90;;;;;;5117443;28;20051;-80
2023/08/05 02:05:04;;;;;;;9.55;4.35;;;14.60;99.90;;;;;;5117216;28;20077;-79
2023/08/05 02:07:31;;;;;;;7.28;4.80;;;14.50;99.90;;;;;;5114249;28;20039;-80
2023/08/05 02:09:57;;;;;;;8.55;4.32;;;14.50;99.90;;;;;;5120276;28;20054;-80
2023/08/05 02:12:23;;;;;;;8.75;4.55;;;14.40;99.90;;;;;;5123294;28;20035;-80
2023/08/05 02:14:48;;;;;;;10.40;4.47;;;14.40;99.90;;;;;;5124114;28;20118;-79
2023/08/05 02:17:14;;;;;;;8.82;4.40;;;14.30;99.90;;;;;;5122008;28;20040;-79
2023/08/05 02:19:39;;;;;;;12.00;5.68;;;14.30;99.90;;;;;;5124970;28;20052;-81
2023/08/05 02:22:05;;;;;;;14.05;4.97;;;14.30;99.90;;;;;;5126727;28;20110;-80
2023/08/05 02:24:31;;;;;;;11.75;5.68;;;14.30;99.90;;;;;;5122535;28;20051;-80
2023/08/05 02:26:57;;;;;;;11.40;6.50;;;14.20;99.90;;;;;;5123617;28;20047;-80
2023/08/05 02:29:22;;;;;;;12.30;6.57;;;14.20;99.90;;;;;;5130439;28;20065;-79
2023/08/05 02:31:48;;;;;;;10.90;6.10;;;14.20;99.90;;;;;;5125334;28;20079;-79
2023/08/05 02:34:13;;;;;;;11.82;6.63;;;14.20;99.90;;;;;;5106639;28;20123;-79
2023/08/05 02:36:42;;;;;;;18.45;8.18;;;14.10;99.90;;;;;;5104645;28;20052;-80
2023/08/05 02:39:08;;;;;;;18.50;8.57;;;14.10;99.90;;;;;;5126839;28;20061;-80
2023/08/05 02:41:34;;;;;;;13.05;6.45;;;14.10;99.90;;;;;;5117502;28;20036;-80
2023/08/05 02:43:59;;;;;;;16.30;7.28;;;14.10;99.90;;;;;;5105681;28;20044;-80
2023/08/05 02:46:25;;;;;;;16.88;7.30;;;14.00;99.90;;;;;;5119509;28;20039;-79
2023/08/05 02:48:51;;;;;;;10.25;6.90;;;14.00;99.90;;;;;;5123837;28;20035;-79
2023/08/05 02:51:16;;;;;;;18.33;10.55;;;14.00;99.90;;;;;;5120355;28;20082;-79
2023/08/05 02:53:43;;;;;;;20.60;9.82;;;14.00;99.90;;;;;;5120957;28;20043;-80
2023/08/05 02:56:12;;;;;;;16.98;8.50;;;14.00;99.90;;;;;;5118582;28;20089;-79
2023/08/05 02:58:38;;;;;;;12.15;5.82;;;13.90;99.90;;;;;;5105059;28;20048;-79
2023/08/05 03:01:05;;;;;;;12.10;6.90;;;13.90;99.90;;;;;;5087078;28;20062;-79
2023/08/05 03:03:31;;;;;;;11.50;7.07;;;13.90;99.90;;;;;;5107547;28;20105;-79
2023/08/05 03:05:56;;;;;;;10.32;6.03;;;13.90;99.90;;;;;;5102662;28;20036;-78
2023/08/05 03:08:22;;;;;;;13.40;6.70;;;13.90;99.90;;;;;;5112191;28;20046;-78
2023/08/05 03:10:57;;;;;;;10.02;5.32;;;13.90;99.90;;;;;;5119478;28;20040;-80
2023/08/05 03:13:22;;;;;;;11.65;5.65;;;13.90;99.90;;;;;;5121757;28;20046;-79
2023/08/05 03:15:48;;;;;;;7.85;4.45;;;13.90;99.90;;;;;;5120856;28;20059;-79
2023/08/05 03:18:14;;;;;;;13.73;4.72;;;13.90;99.90;;;;;;5107460;28;20401;-79
2023/08/05 03:20:41;;;;;;;7.85;4.97;;;14.00;99.90;;;;;;5113265;28;20052;-79
2023/08/05 03:23:06;;;;;;;8.38;5.10;;;14.00;99.90;;;;;;5104335;28;20476;-79
2023/08/05 03:25:32;;;;;;;14.27;7.03;;;14.00;99.90;;;;;;5116713;28;20039;-80
2023/08/05 03:27:58;;;;;;;11.95;6.15;;;14.00;99.90;;;;;;5120916;28;20042;-81
2023/08/05 03:30:24;;;;;;;12.02;5.35;;;14.10;99.90;;;;;;5124583;28;20043;-80
2023/08/05 03:32:49;;;;;;;11.68;5.35;;;14.10;99.90;;;;;;5124744;28;20048;-80
2023/08/05 03:35:15;;;;;;;9.05;4.25;;;14.10;99.90;;;;;;5107773;28;20550;-80
2023/08/05 03:37:41;;;;;;;11.50;4.28;;;14.10;99.90;;;;;;5114193;28;20040;-79
2023/08/05 03:40:07;;;;;;;7.15;4.28;;;14.20;99.90;;;;;;5123321;28;20065;-79
2023/08/05 03:42:33;;;;;;;9.88;4.00;;;14.20;99.90;;;;;;5108023;28;20058;-79
2023/08/05 03:44:59;;;;;;;9.45;3.85;;;14.20;99.90;;;;;;5102591;28;20036;-79
2023/08/05 03:47:25;;;;;;;11.45;4.18;;;14.20;99.90;;;;;;5099749;28;20076;-79
2023/08/05 03:49:51;;;;;;;9.20;4.00;;;14.20;99.90;;;;;;5119586;28;20441;-78
2023/08/05 03:52:16;;;;;;;16.70;4.65;;;14.30;99.90;;;;;;5110837;28;20051;-80
2023/08/05 03:54:42;;;;;;;6.18;3.42;;;14.30;99.90;;;;;;5099019;28;20039;-78
2023/08/05 03:57:08;;;;;;;9.25;4.40;;;14.30;99.90;;;;;;5110595;28;20031;-79
2023/08/05 03:59:35;;;;;;;8.10;4.55;;;14.30;99.90;;;;;;5117270;28;20044;-79
2023/08/05 04:02:02;;;;;;;9.65;4.78;;;14.30;99.90;;;;;;5119509;27;20047;-80
2023/08/05 04:04:28;;;;;;;10.95;4.60;;;14.30;99.90;;;;;;5101710;28;20046;-80
2023/08/05 04:06:54;;;;;;;11.15;4.00;;;14.30;99.90;;;;;;5102950;28;20048;-80
2023/08/05 04:09:20;;;;;;;10.55;5.68;;;14.40;99.90;;;;;;5112795;28;20073;-79
2023/08/05 04:11:48;;;;;;;17.35;5.60;;;14.40;99.90;;;;;;5124248;28;20044;-78
2023/08/05 04:14:17;;;;;;;11.02;5.78;;;14.40;99.90;;;;;;5106333;28;20404;-80
2023/08/05 04:16:42;;;;;;;12.73;4.80;;;14.40;99.90;;;;;;5119219;28;20050;-79
2023/08/05 04:19:08;;;;;;;15.30;5.93;;;14.40;99.90;;;;;;5095172;28;20122;-79
2023/08/05 04:21:39;;;;;;;11.20;4.50;;;14.40;99.90;;;;;;5079727;28;20102;-79
2023/08/05 04:24:09;;;;;;;8.95;4.88;;;14.40;99.90;;;;;;5106619;28;20054;-79
2023/08/05 04:26:35;;;;;;;8.93;4.53;;;14.40;99.90;;;;;;5100601;28;20043;-79
2023/08/05 04:29:02;;;;;;;11.00;4.70;;;14.30;99.90;;;;;;5117349;28;20469;-80
2023/08/05 04:31:28;;;;;;;12.77;4.65;;;14.30;99.90;;;;;;5119913;28;20082;-80
2023/08/05 04:33:54;;;;;;;8.88;4.10;;;14.30;99.90;;;;;;5113476;28;20036;-78
2023/08/05 04:36:20;;;;;;;9.25;4.45;;;14.30;99.90;;;;;;5097839;28;20043;-79
2023/08/05 04:38:45;;;;;;;10.90;4.25;;;14.30;99.90;;;;;;5082995;28;20089;-79
2023/08/05 04:41:11;;;;;;;9.00;4.68;;;14.30;99.90;;;;;;5080980;28;20043;-79
2023/08/05 04:43:36;;;;;;;8.98;4.22;;;14.40;99.90;;;;;;5100420;28;20044;-79
2023/08/05 04:46:02;;;;;;;8.07;4.00;;;14.40;99.90;;;;;;5112280;28;20405;-79
2023/08/05 04:48:28;;;;;;;9.40;4.40;;;14.40;99.90;;;;;;5109147;28;20107;-78
2023/08/05 04:50:55;;;;;;;16.05;4.50;;;14.40;99.90;;;;;;5098405;28;20040;-78
2023/08/05 04:53:21;;;;;;;8.93;3.67;;;14.40;99.90;;;;;;5113523;28;20046;-79
2023/08/05 04:55:47;;;;;;;6.82;3.67;;;14.50;99.90;;;;;;5123790;28;20043;-80
2023/08/05 04:58:12;;;;;;;13.57;4.10;;;14.60;99.90;;;;;;5120683;28;20040;-79
2023/08/05 05:00:38;;;;;;;10.20;4.20;;;14.60;99.90;;;;;;5111140;28;20036;-80
2023/08/05 05:03:06;;;;;;;6.15;4.20;;;14.60;99.90;;;;;;5127109;28;20083;-79
2023/08/05 05:05:33;;;;;;;7.68;3.60;;;14.60;99.90;;;;;;5124094;28;20040;-79
2023/08/05 05:07:59;;;;;;;12.93;3.88;;;14.70;99.90;;;;;;5115479;28;20490;-79
2023/08/05 05:10:25;;;;;;;6.72;3.83;;;14.70;99.90;;;;;;5103496;28;20047;-79
2023/08/05 05:12:51;;;;;;;9.77;3.33;;;14.80;99.90;;;;;;5119933;28;20059;-79
2023/08/05 05:15:19;;;;;;;8.05;3.80;;;14.90;99.90;;;;;;5118497;28;20063;-80
2023/08/05 05:17:45;;;;;;;7.15;3.83;;;14.90;99.90;;;;;;5097376;28;20132;-80
2023/08/05 05:20:11;;;;;;;12.48;3.80;;;14.90;99.90;;;;;;5097723;28;20095;-79
2023/08/05 05:22:37;;;;;;;13.02;4.22;;;14.90;99.90;;;;;;5106854;28;20113;-79
2023/08/05 05:25:03;;;;;;;9.60;3.53;;;15.00;99.90;;;;;;5098964;28;20052;-79
2023/08/05 05:27:28;;;;;;;10.52;3.53;;;15.00;99.90;;;;;;5100213;28;20036;-79
2023/08/05 05:29:57;;;;;;;7.95;3.25;;;15.00;99.90;;;;;;5103280;28;20058;-79
2023/08/05 05:32:23;;;;;;;8.00;3.47;;;15.10;99.90;;;;;;5118794;28;20036;-79
2023/08/05 05:34:48;;;;;;;8.00;3.20;;;15.10;99.90;;;;;;5117573;28;20088;-80
2023/08/05 05:37:14;;;;;;;5.80;3.30;;;15.20;99.90;;;;;;5120112;28;20103;-80
2023/08/05 05:39:41;;;;;;;14.52;4.00;;;15.20;99.90;;;;;;5119527;28;20066;-80
2023/08/05 05:42:06;;;;;;;6.50;3.10;;;15.40;99.90;;;;;;5099966;28;20035;-79
2023/08/05 05:44:32;;;;;;;7.30;2.95;;;15.60;99.90;;;;;;5117737;28;20039;-79
2023/08/05 05:46:58;;;;;;;8.25;3.30;;;15.70;99.90;;;;;;5118303;28;20082;-79
2023/08/05 05:49:23;;;;;;;10.40;3.15;;;15.80;99.90;;;;;;5115571;28;20043;-80
2023/08/05 05:51:50;;;;;;;10.02;3.70;;;16.00;99.90;;;;;;5101676;28;20118;-80
2023/08/05 05:54:16;;;;;;;8.80;3.45;;;16.00;99.90;;;;;;5115750;28;20040;-79
2023/08/05 05:56:41;;;;;;;7.32;3.20;;;16.10;99.90;;;;;;5100105;28;20040;-79
2023/08/05 05:59:07;;;;;;;5.35;2.78;;;16.10;99.90;;;;;;5114196;28;20526;-79
2023/08/05 06:01:33;;;;;;;9.68;2.80;;;16.20;99.90;;;;;;5126458;28;20040;-80
2023/08/05 06:03:58;;;;;;;6.28;3.00;;;16.30;99.90;;;;;;5117450;28;20501;-79
2023/08/05 06:06:24;;;;;;;7.18;2.85;;;16.40;99.90;;;;;;5122467;28;20105;-79
2023/08/05 06:08:49;;;;;;;8.02;3.50;;;16.50;99.90;;;;;;5121801;28;20464;-80
2023/08/05 06:11:15;;;;;;;10.00;3.08;;;16.70;99.90;;;;;;5118304;28;20036;-80
2023/08/05 06:13:41;;;;;;;7.20;2.80;;;16.80;99.90;;;;;;5119805;28;20504;-80
2023/08/05 06:16:07;;;;;;;7.07;2.70;;;16.80;99.90;;;;;;5119524;28;20374;-79
2023/08/05 06:18:32;;;;;;;10.85;4.15;;;16.80;99.90;;;;;;5116653;28;20500;-78
2023/08/05 06:20:58;;;;;;;5.32;2.63;;;16.80;99.90;;;;;;5119308;28;20493;-79
2023/08/05 06:23:27;;;;;;;5.60;2.92;;;16.80;99.90;;;;;;5118439;28;20063;-77
2023/08/05 06:25:53;;;;;;;6.47;2.72;;;16.90;99.90;;;;;;5115676;28;20059;-80
2023/08/05 06:28:18;;;;;;;5.00;2.50;;;17.00;99.90;;;;;;5087041;28;20066;-80
2023/08/05 06:30:47;;;;;;;9.52;3.03;;;17.10;99.90;;;;;;5115538;28;20055;-79
2023/08/05 06:33:13;;;;;;;5.15;2.30;;;17.30;99.90;;;;;;5118418;28;20044;-79
2023/08/05 06:35:42;;;;;;;4.35;2.40;;;17.30;99.90;;;;;;5128337;28;20485;-79
2023/08/05 06:38:07;;;;;;;8.02;2.40;;;17.30;99.90;;;;;;5124209;28;20043;-80
2023/08/05 06:40:33;;;;;;;5.65;2.42;;;17.40;99.90;;;;;;5121066;28;20385;-79
2023/08/05 06:42:59;;;;;;;4.93;2.60;;;17.40;99.90;;;;;;5104836;28;20062;-80
2023/08/05 06:45:24;;;;;;;5.13;2.75;;;17.40;99.90;;;;;;5108496;28;20066;-78
2023/08/05 06:47:50;;;;;;;8.10;2.70;;;17.40;99.90;;;;;;5108423;28;20071;-79
2023/08/05 06:50:16;;;;;;;6.78;2.88;;;17.50;99.90;;;;;;5127173;28;20096;-80
2023/08/05 06:52:41;;;;;;;6.10;2.70;;;17.60;99.90;;;;;;5130855;28;20036;-79
2023/08/05 06:55:08;;;;;;;7.55;2.80;;;17.80;99.90;;;;;;5127040;28;20036;-79
2023/08/05 06:57:34;;;;;;;6.38;2.65;;;17.90;99.90;;;;;;5125937;28;20032;-79
2023/08/05 07:00:00;;;;;;;3.92;2.20;;;18.00;99.90;;;;;;5107772;28;20383;-80
2023/08/05 07:02:26;;;;;;;7.50;2.58;;;18.20;99.90;;;;;;5109485;28;20065;-79
2023/08/05 07:04:52;;;;;;;7.95;2.78;;;18.30;99.90;;;;;;5111260;28;20118;-81
2023/08/05 07:07:19;;;;;;;5.18;2.38;;;18.60;99.90;;;;;;5133079;28;20069;-81
2023/08/05 07:09:44;;;;;;;6.40;2.58;;;18.60;99.90;;;;;;5125127;28;20080;-81
2023/08/05 07:12:10;;;;;;;6.55;2.58;;;18.70;99.90;;;;;;5108459;28;20044;-80
2023/08/05 07:14:36;;;;;;;5.40;2.50;;;18.80;99.90;;;;;;5111594;28;20064;-80
2023/08/05 07:17:02;;;;;;;3.95;2.40;;;18.80;99.90;;;;;;5108339;28;20096;-80
2023/08/05 07:19:29;;;;;;;7.00;2.38;;;18.70;99.90;;;;;;5110966;28;20070;-81
2023/08/05 07:21:55;;;;;;;;;;;18.50;99.90;;;;;;5110795;28;20047;-82
2023/08/05 07:24:23;;;;;;;3.65;2.30;;;18.30;99.90;;;;;;5127178;28;20289;-81
2023/08/05 07:26:49;;;;;;;4.15;2.30;;;18.20;99.90;;;;;;5123341;28;20421;-80
2023/08/05 07:29:15;;;;;;;5.10;2.50;;;18.10;99.90;;;;;;5118997;28;20048;-81
2023/08/05 07:31:41;;;;;;;5.82;2.45;;;18.00;99.90;;;;;;5118417;28;20442;-79
2023/08/05 07:34:09;;;;;;;8.55;2.20;;;18.00;99.90;;;;;;5122126;28;20039;-81
2023/08/05 07:36:36;;;;;;;7.15;2.20;;;17.90;99.90;;;;;;5122703;28;20105;-80
2023/08/05 07:39:06;;;;;;;4.10;2.07;;;17.90;99.90;;;;;;5111390;28;20051;-80
2023/08/05 07:41:32;;;;;;;4.60;2.60;;;17.90;99.90;;;;;;5111739;28;20044;-80
2023/08/05 07:43:58;;;;;;;3.75;2.15;;;17.90;99.90;;;;;;5121951;28;20501;-80
2023/08/05 07:46:30;;;;;;;5.47;2.40;;;18.00;99.90;;;;;;5115852;28;20043;-79
2023/08/05 07:48:58;;;;;;;4.45;2.42;;;18.00;99.90;;;;;;5104299;28;20076;-80
2023/08/05 07:51:24;;;;;;;;;;;18.00;99.90;;;;;;5120452;28;20063;-81
2023/08/05 07:53:52;;;;;;;6.13;2.42;;;18.00;99.90;;;;;;5117238;28;19927;-80
2023/08/05 07:56:17;;;;;;;6.80;2.50;;;18.00;99.90;;;;;;5104145;28;20048;-79
2023/08/05 07:58:45;;;;;;;5.78;2.22;;;18.00;99.90;;;;;;5104492;28;20070;-80
2023/08/05 08:01:13;;;;;;;5.57;2.38;;;18.10;99.90;;;;;;5102771;28;20040;-80
2023/08/05 08:03:41;;;;;;;7.55;2.55;;;18.20;99.90;;;;;;5101910;28;20489;-80
2023/08/05 08:06:07;;;;;;;5.03;2.25;;;18.30;99.90;;;;;;5104567;28;20412;-80
2023/08/05 08:08:33;;;;;;;3.60;2.33;;;18.40;99.90;;;;;;5101103;28;20051;-80
2023/08/05 08:10:59;;;;;;;5.20;2.58;;;18.50;99.90;;;;;;5118715;28;20048;-80
2023/08/05 08:13:25;;;;;;;6.40;2.33;;;18.60;99.90;;;;;;5122454;28;20044;-81
2023/08/05 08:15:50;;;;;;;6.65;2.22;;;18.80;99.90;;;;;;5121874;27;20028;-79
2023/08/05 08:18:16;;;;;;;5.07;2.15;;;18.90;99.90;;;;;;5121256;28;20047;-81
2023/08/05 08:20:49;;;;;;;8.80;2.75;;;19.00;99.90;;;;;;5113127;28;20052;-81
2023/08/05 08:23:15;;;;;;;5.88;2.55;;;18.90;99.90;;;;;;5104884;28;20089;-79
2023/08/05 08:25:41;;;;;;;6.95;2.38;;;18.90;99.90;;;;;;5120778;28;20044;-81
2023/08/05 08:28:06;;;;;;;8.55;2.00;;;18.90;99.90;;;;;;5114641;28;20100;-82
2023/08/05 08:30:32;;;;;;;7.40;2.30;;;18.90;99.90;;;;;;5103084;28;20036;-80
2023/08/05 08:32:58;;;;;;;7.28;2.40;;;18.80;99.90;;;;;;5119988;28;20051;-81
2023/08/05 08:35:23;;;;;;;5.43;2.20;;;18.80;99.90;;;;;;5118990;28;20075;-81
2023/08/05 08:37:49;;;;;;;6.43;2.10;;;18.80;99.90;;;;;;5118465;28;20084;-79
2023/08/05 08:40:15;;;;;;;7.15;2.17;;;18.80;99.90;;;;;;5118953;28;20066;-79
2023/08/05 08:42:44;;;;;;;4.07;2.03;;;18.90;99.90;;;;;;5117791;28;20039;-81
2023/08/05 08:45:14;;;;;;;5.15;2.47;;;18.80;99.90;;;;;;5101334;28;20036;-80
2023/08/05 08:47:45;;;;;;;6.18;2.30;;;18.90;99.90;;;;;;5101081;28;20035;-81
2023/08/05 08:50:11;;;;;;;4.13;2.10;;;19.00;99.90;;;;;;5099459;28;20047;-81
2023/08/05 08:52:40;;;;;;;6.03;2.15;;;19.20;99.90;;;;;;5102677;28;20467;-81
2023/08/05 08:55:08;;;;;;;5.82;2.45;;;19.30;99.90;;;;;;5102755;28;20104;-78
2023/08/05 08:57:34;;;;;;;5.25;2.40;;;19.40;99.90;;;;;;5104539;28;20439;-79
2023/08/05 09:00:00;;;;;;;6.50;2.45;;;19.40;99.90;;;;;;5121283;28;20088;-81
2023/08/05 09:02:26;;;;;;;7.90;2.33;;;19.50;99.90;;;;;;5082867;28;20052;-77
2023/08/05 09:04:55;;;;;;;4.65;1.80;;;19.60;99.90;;;;;;5108045;28;20043;-79
2023/08/05 09:07:27;;;;;;;5.43;2.47;;;19.90;99.90;;;;;;5120095;28;20032;-80
2023/08/05 09:09:57;;;;;;;3.30;1.95;;;20.10;99.90;;;;;;5112535;28;20035;-81
2023/08/05 09:12:23;;;;;;;3.92;2.00;;;20.20;99.90;;;;;;5099809;28;20040;-79
2023/08/05 09:14:57;;;;;;;4.38;2.45;;;20.20;99.90;;;;;;5102152;28;20089;-81
2023/08/05 09:17:22;;;;;;;6.07;2.58;;;20.20;99.90;;;;;;5113523;28;20076;-80
2023/08/05 09:19:48;;;;;;;5.75;2.60;;;20.10;99.90;;;;;;5123522;28;20451;-81
2023/08/05 09:22:14;;;;;;;5.40;2.30;;;20.10;99.90;;;;;;5108309;28;20059;-81
2023/08/05 09:24:39;;;;;;;5.90;2.40;;;20.10;99.90;;;;;;5108157;28;20036;-82
2023/08/05 09:27:05;;;;;;;4.30;2.08;;;20.20;99.90;;;;;;5129828;28;20513;-80
2023/08/05 09:29:35;;;;;;;5.40;2.00;;;20.20;99.90;;;;;;5121733;28;20040;-80
2023/08/05 09:32:04;;;;;;;2.65;1.90;;;20.20;99.90;;;;;;5112004;28;20043;-79
2023/08/05 09:34:38;;;;;;;5.57;2.28;;;20.20;99.90;;;;;;5114626;28;20118;-80
2023/08/05 09:37:08;;;;;;;3.20;1.80;;;20.40;99.90;;;;;;5128117;28;20085;-82
2023/08/05 09:39:45;;;;;;;5.50;1.90;;;20.60;99.90;;;;;;5123492;28;20051;-80
2023/08/05 09:42:27;;;;;;;2.60;1.70;;;20.80;99.90;;;;;;5120996;28;20036;-81
2023/08/05 09:44:57;;;;;;;2.25;1.50;;;20.90;99.90;;;;;;5124857;28;20113;-81
2023/08/05 09:47:28;;;;;;;6.32;2.22;;;21.00;99.90;;;;;;5113875;28;20044;-80
2023/08/05 09:49:56;;;;;;;4.45;2.20;;;21.10;99.90;;;;;;5112488;28;20038;-79
2023/08/05 09:52:23;;;;;;;3.60;1.77;;;21.10;99.90;;;;;;5119075;28;20044;-83
2023/08/05 09:54:57;;;;;;;;;;;21.20;99.90;;;;;;5117074;28;20039;-77
2023/08/05 09:57:25;;;;;;;3.63;1.70;;;21.20;99.90;;;;;;5116319;28;20256;-83
2023/08/05 09:59:55;;;;;;;4.43;2.00;;;21.20;99.90;;;;;;5117070;28;20043;-79
2023/08/05 10:02:25;;;;;;;5.95;1.73;;;21.40;99.90;;;;;;5097686;28;20036;-80
2023/08/05 10:04:56;;;;;;;3.28;1.80;;;21.60;99.90;;;;;;5107150;28;20046;-79
2023/08/05 10:07:23;;;;;;;4.80;2.00;;;21.70;99.90;;;;;;5123396;28;20040;-79
2023/08/05 10:09:50;;;;;;;7.22;2.45;;;21.80;99.90;;;;;;5117161;28;20111;-81
2023/08/05 10:12:25;;;;;;;4.03;1.70;;;21.80;99.90;;;;;;5119829;28;20040;-82
2023/08/05 10:14:54;;;;;;;2.45;1.63;;;21.90;99.90;;;;;;5105990;28;20039;-81
2023/08/05 10:17:20;;;;;;;4.25;1.80;;;21.70;99.90;;;;;;5108847;28;20044;-79
2023/08/05 10:19:50;;;;;;;4.05;1.80;;;21.50;99.90;;;;;;5111405;28;20047;-83
2023/08/05 10:22:22;;;;;;;3.60;1.90;;;21.40;99.90;;;;;;5103301;28;20046;-79
2023/08/05 10:24:59;;;;;;;3.65;1.80;;;21.40;99.90;;;;;;5120594;28;20044;-83
2023/08/05 10:27:42;;;;;;;3.53;1.80;;;21.20;99.90;;;;;;5086260;28;20072;-80
2023/08/05 10:30:16;;;;;;;3.13;1.80;;;21.00;99.90;;;;;;5101660;28;20450;-80
2023/08/05 10:32:55;;;;;;;3.88;1.80;;;20.90;99.90;;;;;;5085699;28;20090;-81
2023/08/05 10:35:27;;;;;;;3.17;1.80;;;20.90;99.90;;;;;;5101543;28;20047;-79
2023/08/05 10:38:14;;;;;;;3.60;1.75;;;21.10;99.90;;;;;;5100155;28;20123;-80
2023/08/05 10:40:49;;;;;;;2.38;1.50;;;21.10;99.90;;;;;;5101576;28;20099;-82
2023/08/05 10:43:30;;;;;;;3.47;1.80;;;21.30;99.90;;;;;;5101793;28;20039;-81
2023/08/05 10:45:56;;;;;;;4.47;2.10;;;21.60;99.90;;;;;;5095643;28;20503;-80
2023/08/05 10:48:36;;;;;;;3.22;1.90;;;21.70;99.90;;;;;;5122466;28;20371;-80
2023/08/05 10:51:12;;;;;;;4.15;1.90;;;21.70;99.90;;;;;;5119734;28;20079;-80
2023/08/05 10:53:38;;;;;;;5.25;1.60;;;21.80;99.90;;;;;;5105459;28;20044;-80
2023/08/05 10:56:11;;;;;;;3.47;1.90;;;21.70;99.90;;;;;;5104785;28;20071;-80
2023/08/05 10:58:49;;;;;;;4.93;2.00;;;21.60;99.90;;;;;;5108817;28;20520;-82
2023/08/05 11:01:16;;;;;;;2.75;1.80;;;21.50;99.90;;;;;;5105152;28;20098;-80
2023/08/05 11:03:42;;;;;;;5.20;2.25;;;21.30;99.90;;;;;;5108579;28;20050;-81
2023/08/05 11:06:09;;;;;;;4.80;2.10;;;21.10;99.90;;;;;;5124174;28;20048;-80
2023/08/05 11:08:37;;;;;;;4.47;2.00;;;21.10;99.90;;;;;;5109431;28;20119;-79
2023/08/05 11:11:05;;;;;;;4.25;2.03;;;21.30;99.90;;;;;;5110306;28;20040;-82
2023/08/05 11:13:39;;;;;;;5.65;1.95;;;21.70;99.90;;;;;;5129268;28;20490;-82
2023/08/05 11:16:06;;;;;;;3.20;1.80;;;22.10;99.90;;;;;;5106221;28;20073;-82
2023/08/05 11:18:32;;;;;;;3.13;1.97;;;22.50;99.90;;;;;;5090240;28;20075;-82
2023/08/05 11:21:00;;;;;;;5.15;2.00;;;22.70;99.90;;;;;;5110165;28;20347;-81
2023/08/05 11:23:26;;;;;;;5.32;1.95;;;22.70;99.90;;;;;;5130233;28;20072;-80
2023/08/05 11:25:53;;;;;;;6.60;2.42;;;22.70;99.90;;;;;;5126718;28;20099;-80
2023/08/05 11:28:22;;;;;;;6.28;2.17;;;22.50;99.90;;;;;;5108086;28;20059;-79
2023/08/05 11:30:48;;;;;;;3.67;2.05;;;22.20;99.60;;;;;;5106005;28;20091;-79
2023/08/05 11:33:13;;;;;;;5.13;1.92;;;21.90;99.60;;;;;;5106741;28;20039;-81
2023/08/05 11:35:46;;;;;;;6.38;2.33;;;21.70;99.90;;;;;;5108847;28;20051;-80
2023/08/05 11:38:17;;;;;;;7.03;2.15;;;21.70;99.90;;;;;;5102695;28;20052;-80
2023/08/05 11:40:49;;;;;;;5.78;2.28;;;21.80;99.90;;;;;;5105986;28;20051;-80
2023/08/05 11:43:16;;;;;;;6.82;2.55;;;22.00;99.90;;;;;;5112744;28;20040;-80
2023/08/05 11:45:42;;;;;;;4.75;1.92;;;22.00;99.90;;;;;;5126223;28;20107;-83
2023/08/05 11:48:23;;;;;;;4.65;2.33;;;22.00;99.90;;;;;;5113968;28;20032;-82
2023/08/05 11:51:05;;;;;;;3.42;2.17;;;22.10;99.90;;;;;;5116220;28;20044;-81
2023/08/05 11:53:30;;;;;;;4.05;2.20;;;22.00;98.80;;;;;;5103098;28;20405;-80
2023/08/05 11:55:56;;;;;;;4.85;2.00;;;21.90;99.90;;;;;;5106870;28;20075;-82
2023/08/05 11:58:26;;;;;;;4.13;2.47;;;22.00;99.90;;;;;;5118962;28;20051;-78
2023/08/05 12:00:57;;;;;;;5.28;2.30;;;21.90;99.90;;;;;;5121188;28;20040;-79
2023/08/05 12:03:29;;;;;;;3.78;1.90;;;22.00;99.90;;;;;;5123009;28;20035;-79
2023/08/05 12:06:03;;;;;;;4.13;2.20;;;21.90;99.90;;;;;;5123064;28;20050;-79
2023/08/05 12:08:44;;;;;;;4.32;2.40;;;21.80;99.90;;;;;;5120722;28;20044;-79
2023/08/05 12:11:12;;;;;;;4.25;2.10;;;21.50;99.90;;;;;;5123085;28;20043;-80
2023/08/05 12:13:38;;;;;;;3.83;2.38;;;21.30;99.90;;;;;;5121667;28;20111;-80
2023/08/05 12:16:15;;;;;;;4.50;2.15;;;21.20;99.90;;;;;;5104298;28;20048;-82
2023/08/05 12:18:45;;;;;;;8.80;3.28;;;21.10;99.90;;;;;;5107296;28;20063;-83
2023/08/05 12:21:12;;;;;;;3.72;2.42;;;21.00;99.90;;;;;;5122135;28;20055;-80
2023/08/05 12:23:41;;;;;;;4.22;2.40;;;20.90;99.90;;;;;;5105855;28;20108;-79
2023/08/05 12:26:10;;;;;;;4.35;2.55;;;20.90;99.90;;;;;;5101724;28;20044;-80
2023/08/05 12:28:37;;;;;;;5.22;2.50;;;20.90;99.90;;;;;;5113613;28;20095;-81
2023/08/05 12:31:03;;;;;;;5.45;2.63;;;20.80;99.90;;;;;;5109067;28;20091;-82
2023/08/05 12:33:29;;;;;;;12.02;2.20;;;20.80;99.90;;;;;;5106629;28;20436;-81
2023/08/05 12:35:55;;;;;;;5.55;2.38;;;20.70;99.90;;;;;;5105410;28;20048;-79
2023/08/05 12:38:21;;;;;;;4.40;2.15;;;20.60;99.90;;;;;;5103100;28;20051;-83
2023/08/05 12:40:48;;;;;;;7.18;2.50;;;20.50;99.90;;;;;;5104146;28;20453;-81
2023/08/05 12:43:16;;;;;;;5.13;2.22;;;20.40;99.90;;;;;;5103502;28;20044;-77
2023/08/05 12:45:42;;;;;;;4.40;2.30;;;20.30;99.90;;;;;;5102116;28;20101;-78